Latest Weather Observations for Rabbit Flat

IDD60801

Issued at 5:31 pm CST Sunday 4 December 2016 (issued every 30 minutes, with the page automatically refreshed every 10 minutes)

About weather observations | Map of weather stations | Latest weather observations for NT | Other Formats
Station Details ID: 015666 Name: RABBIT FLAT Lat: -20.18 Lon: 130.01 Height: 340.0 m
Data from the previous 72 hours. | See also: Recent months at Rabbit Flat
Date/Time
CST
Temp
°C
App
Temp
°C
Dew
Point
°C
Rel
Hum
%
Delta-T
°C
Wind Press
QNH
hPa
Press
MSL
hPa
Rain since
9am
mm
Dir  Spd
km/h
Gust
km/h
Spd
kts
Gust
kts
04/05:30pm 35.7 - 19.9 39 10.7 - - - - - 1007.6 - 0.6
04/05:00pm 35.6 - 20.3 40 10.4 - - - - - 1007.8 - 0.6
04/04:30pm 36.1 - 20.6 40 10.6 - - - - - 1008.0 - 0.6
04/04:00pm 34.8 - 20.4 43 9.8 - - - - - 1008.3 - 0.6
04/03:30pm 35.0 - 19.9 41 10.2 - - - - - 1008.6 - 0.6
04/03:00pm 34.8 - 19.6 40 10.2 - - - - - 1009.1 1006.4 0.6
04/02:30pm 33.2 - 20.0 45 8.9 - - - - - 1009.5 - 0.6
04/02:00pm 32.7 - 20.6 49 8.2 - - - - - 1010.1 - 0.6
04/01:30pm 32.4 - 20.9 50 7.8 - - - - - 1010.3 - 0.6
04/01:00pm 29.2 - 23.8 72 3.8 - - - - - 1010.8 - 0.6
04/12:54pm 28.0 - 23.1 74 3.4 - - - - - 1010.9 - 0.6
04/12:30pm 33.0 - 18.4 42 9.6 - - - - - 1011.2 - 0.0
04/12:00pm 28.1 - 18.2 55 6.4 - - - - - 1011.7 1009.0 0.0
04/11:59am 28.7 - 17.8 51 7.0 - - - - - 1011.6 - 0.0
04/11:30am 34.4 - 18.7 39 10.4 - - - - - 1011.9 - 0.0
04/11:00am 33.6 - 19.7 44 9.3 - - - - - 1012.4 - 0.0
04/10:30am 31.5 - 19.4 48 8.0 - - - - - 1012.9 - 0.0
04/10:00am 31.3 - 19.6 49 7.8 - - - - - 1013.1 - 0.0
04/09:30am 30.7 - 20.2 53 7.0 - - - - - 1013.4 - 0.0
04/09:00am 29.7 - 19.6 54 6.7 - - - - - 1013.5 1010.8 1.2
04/08:30am 28.3 - 19.3 58 5.9 - - - - - 1013.6 - 1.2
04/08:00am 27.4 - 20.3 65 4.7 - - - - - 1013.6 - 1.2
04/07:30am 25.9 - 20.8 73 3.4 - - - - - 1013.4 - 1.2
04/07:00am 24.3 - 21.1 82 2.1 - - - - - 1012.5 - 1.2
04/06:30am 23.4 - 21.6 90 1.2 - - - - - 1012.1 - 1.2
04/06:00am 23.2 - 21.1 88 1.4 - - - - - 1011.9 1009.2 1.2
04/05:30am 23.6 - 21.2 86 1.6 - - - - - 1011.3 - 1.2
04/05:00am 23.8 - 21.7 88 1.4 - - - - - 1011.0 - 1.2
04/04:30am 24.2 - 22.1 88 1.4 - - - - - 1010.8 - 1.2
04/04:00am 24.5 - 22.0 86 1.7 - - - - - 1010.8 - 1.2
04/03:30am 24.4 - 22.2 87 1.5 - - - - - 1010.8 - 1.2
04/03:00am 24.4 - 21.9 86 1.7 - - - - - 1010.6 1007.9 1.2
04/02:30am 24.0 - 22.1 89 1.3 - - - - - 1010.4 - 1.2
04/02:00am 23.7 - 22.2 91 1.0 - - - - - 1010.4 - 1.2
04/01:30am 23.7 - 21.6 88 1.4 - - - - - 1010.5 - 1.2
04/01:00am 23.8 - 21.6 87 1.5 - - - - - 1010.9 - 1.2
04/12:30am 24.1 - 21.7 86 1.6 - - - - - 1011.3 - 1.2
04/12:00am 24.2 - 21.5 85 1.8 - - - - - 1011.7 1009.0 1.2
 
Date/Time
CST
Temp
°C
App
Temp
°C
Dew
Point
°C
Rel
Hum
%
Delta-T
°C
Wind Press
QNH
hPa
Press
MSL
hPa
Rain since
9am
mm
Dir  Spd
km/h
Gust
km/h
Spd
kts
Gust
kts
03/11:30pm 24.0 - 21.5 86 1.7 - - - - - 1011.8 - 1.2
03/11:00pm 24.1 - 21.4 85 1.8 - - - - - 1012.1 - 1.2
03/10:30pm 24.7 - 20.9 79 2.5 - - - - - 1012.5 - 1.2
03/10:00pm 25.0 - 20.9 78 2.7 - - - - - 1012.6 - 1.2
03/09:30pm 24.8 - 21.2 80 2.4 - - - - - 1012.8 - 1.2
03/09:00pm 24.8 - 20.9 79 2.6 - - - - - 1012.6 1009.9 1.2
03/08:30pm 25.2 - 20.7 76 3.0 - - - - - 1012.3 - 1.2
03/08:00pm 25.9 - 20.8 73 3.4 - - - - - 1011.8 - 1.2
03/07:30pm 25.4 - 20.6 75 3.2 - - - - - 1010.9 - 1.2
03/07:00pm 25.3 - 20.0 72 3.5 - - - - - 1010.9 - 1.2
03/06:30pm 25.7 - 19.6 69 4.0 - - - - - 1010.5 - 1.0
03/06:00pm 24.5 - 19.8 75 3.1 - - - - - 1010.0 1007.2 1.0
03/05:30pm 24.5 - 19.8 75 3.1 - - - - - 1009.9 - 0.6
03/05:00pm 24.4 - 20.1 77 2.8 - - - - - 1009.1 - 0.4
03/04:30pm 27.9 - 19.7 61 5.4 - - - - - 1009.2 - 0.2
03/04:00pm 30.6 - 19.1 50 7.6 - - - - - 1008.7 - 0.2
03/03:56pm 31.4 - 19.0 47 8.2 - - - - - 1008.5 - 0.2
03/03:30pm 37.1 - 17.7 32 12.8 - - - - - 1007.8 - 0.2
03/03:00pm 38.9 - 17.2 28 14.3 - - - - - 1007.8 1005.1 0.2
03/02:30pm 37.4 - 17.5 31 13.1 - - - - - 1008.3 - 0.2
03/02:00pm 37.3 - 17.6 31 13.0 - - - - - 1009.0 - 0.2
03/01:30pm 37.4 - 16.9 30 13.4 - - - - - 1009.9 - 0.2
03/01:00pm 36.1 - 17.7 33 12.1 - - - - - 1010.5 - 0.2
03/12:30pm 35.9 - 17.8 34 11.9 - - - - - 1011.1 - 0.2
03/12:00pm 35.3 - 17.0 33 11.9 - - - - - 1011.5 1008.8 0.2
03/11:30am 35.0 - 16.3 32 12.0 - - - - - 1012.0 - 0.2
03/11:00am 34.8 - 17.1 35 11.5 - - - - - 1012.6 - 0.2
03/10:30am 32.9 - 17.1 39 10.2 - - - - - 1013.0 - 0.2
03/10:00am 31.3 - 18.3 46 8.5 - - - - - 1012.9 - 0.0
03/09:30am 30.2 - 18.4 49 7.7 - - - - - 1012.6 - 0.0
03/09:00am 27.9 - 20.6 64 4.9 - - - - - 1012.4 1009.7 1.8
03/08:30am 27.3 - 20.2 65 4.7 - - - - - 1012.0 - 1.8
03/08:00am 26.5 - 21.1 72 3.6 - - - - - 1012.1 - 1.8
03/07:30am 26.1 - 21.7 77 3.0 - - - - - 1011.6 - 1.8
03/07:00am 25.2 - 22.1 83 2.1 - - - - - 1011.0 - 1.8
03/06:30am 24.2 - 22.3 89 1.3 - - - - - 1010.4 - 1.8
03/06:00am 23.6 - 22.1 91 1.0 - - - - - 1009.7 1006.9 1.8
03/05:30am 24.0 - 22.1 89 1.3 - - - - - 1009.1 - 1.8
03/05:00am 24.4 - 21.3 83 2.1 - - - - - 1008.9 - 1.8
03/04:30am 24.6 - 21.5 83 2.1 - - - - - 1009.0 - 1.8
03/04:00am 24.6 - 20.7 79 2.6 - - - - - 1008.9 - 1.8
03/03:30am 24.0 - 21.0 83 2.0 - - - - - 1008.9 - 1.8
03/03:00am 26.1 - 19.4 66 4.4 - - - - - 1009.5 1006.8 1.0
03/02:30am 26.0 - 19.1 65 4.5 - - - - - 1009.2 - 1.0
03/02:00am 25.6 - 19.8 70 3.8 - - - - - 1009.4 - 1.0
03/01:30am 25.6 - 20.3 72 3.5 - - - - - 1009.8 - 1.0
03/01:00am 25.8 - 20.2 71 3.7 - - - - - 1010.2 - 1.0
03/12:30am 25.4 - 21.1 77 2.9 - - - - - 1010.8 - 1.0
03/12:00am 25.3 - 21.7 80 2.4 - - - - - 1010.9 1008.2 0.8
 
Date/Time
CST
Temp
°C
App
Temp
°C
Dew
Point
°C
Rel
Hum
%
Delta-T
°C
Wind Press
QNH
hPa
Press
MSL
hPa
Rain since
9am
mm
Dir  Spd
km/h
Gust
km/h
Spd
kts
Gust
kts
02/11:30pm 28.0 - 18.3 55 6.3 - - - - - 1011.4 - 0.8
02/11:00pm 26.3 - 18.6 62 5.0 - - - - - 1010.1 - 0.6
02/10:41pm 26.5 - 20.3 68 4.1 - - - - - 1010.0 - 0.4
02/10:30pm 31.7 - 15.3 37 10.3 - - - - - 1009.9 - 0.0
02/10:00pm 32.6 - 14.8 34 11.1 - - - - - 1009.5 - 0.0
02/09:30pm 30.9 - 17.4 44 8.7 - - - - - 1008.9 - 0.0
02/09:00pm 31.8 - 16.0 38 10.0 - - - - - 1008.2 1005.5 0.0
02/08:30pm 31.9 - 17.6 42 9.3 - - - - - 1007.5 - 0.0
02/08:00pm 32.5 - 16.6 38 10.2 - - - - - 1006.8 - 0.0
02/07:30pm 33.2 - 17.9 40 10.0 - - - - - 1006.3 - 0.0
02/07:00pm 33.8 - 15.9 34 11.4 - - - - - 1006.3 - 0.0
02/06:30pm 33.8 - 17.2 37 10.8 - - - - - 1006.6 - 0.0
02/06:00pm 34.1 - 17.6 37 10.8 - - - - - 1006.7 1003.9 0.0
02/05:30pm 35.1 - 17.5 35 11.5 - - - - - 1006.6 - 0.0
02/05:00pm 35.8 - 16.1 31 12.6 - - - - - 1006.3 - 0.0
02/04:30pm 35.2 - 15.8 31 12.4 - - - - - 1006.2 - 0.0
02/04:14pm 33.8 - 19.8 43 9.4 - - - - - 1006.1 - 0.0
02/04:00pm 39.7 - 16.2 25 15.3 - - - - - 1005.9 - 0.0
02/03:30pm 41.8 - 14.5 20 17.5 - - - - - 1006.1 - 0.0
02/03:00pm 39.8 - 15.0 23 15.9 - - - - - 1007.0 1004.2 0.0
02/02:30pm 40.1 - 15.7 24 15.8 - - - - - 1007.4 - 0.0
02/02:00pm 38.5 - 17.2 28 14.0 - - - - - 1007.9 - 0.0
02/01:30pm 39.7 - 16.0 25 15.4 - - - - - 1008.2 - 0.0
02/01:00pm 39.6 - 15.8 24 15.4 - - - - - 1008.5 - 0.0
02/12:30pm 39.0 - 16.0 26 14.9 - - - - - 1009.0 - 0.0
02/12:00pm 37.5 - 16.2 28 13.8 - - - - - 1009.5 1006.8 0.0
02/11:30am 37.3 - 16.3 29 13.6 - - - - - 1010.2 - 0.0
02/11:00am 35.9 - 16.4 31 12.6 - - - - - 1010.4 - 0.0
02/10:30am 35.1 - 16.1 32 12.2 - - - - - 1010.6 - 0.0
02/10:00am 34.3 - 16.0 33 11.7 - - - - - 1011.0 - 0.0
02/09:30am 33.8 - 15.0 32 11.8 - - - - - 1011.1 - 0.0
02/09:00am 32.4 - 14.8 34 11.0 - - - - - 1011.1 1008.4 0.0
02/08:30am 31.9 - 14.7 35 10.7 - - - - - 1011.1 - 0.0
02/08:00am 30.1 - 14.7 39 9.5 - - - - - 1011.0 - 0.0
02/07:30am 29.3 - 14.7 41 9.0 - - - - - 1010.5 - 0.0
02/07:00am 28.5 - 15.5 45 8.1 - - - - - 1010.0 - 0.0
02/06:30am 27.2 - 15.2 47 7.4 - - - - - 1009.4 - 0.0
02/06:00am 26.2 - 15.5 51 6.6 - - - - - 1008.7 1006.0 0.0
02/05:30am 26.8 - 15.7 50 6.9 - - - - - 1007.6 - 0.0
02/05:00am 27.6 - 15.3 47 7.6 - - - - - 1007.2 - 0.0
02/04:30am 28.4 - 15.4 45 8.1 - - - - - 1007.3 - 0.0
02/04:00am 29.0 - 14.9 42 8.7 - - - - - 1007.1 - 0.0
02/03:30am 29.6 - 14.3 39 9.4 - - - - - 1006.9 - 0.0
02/03:00am 29.8 - 13.7 37 9.8 - - - - - 1007.0 1004.2 0.0
02/02:30am 30.2 - 13.6 36 10.1 - - - - - 1007.4 - 0.0
02/02:00am 30.6 - 13.3 34 10.5 - - - - - 1007.6 - 0.0
02/01:30am 31.0 - 13.0 33 10.9 - - - - - 1008.0 - 0.0
02/01:00am 31.2 - 13.3 33 10.9 - - - - - 1008.7 - 0.0
02/12:30am 31.3 - 13.4 33 10.9 - - - - - 1008.5 - 0.0
02/12:00am 31.5 - 13.5 33 11.0 - - - - - 1008.5 1005.8 0.0
 
Date/Time
CST
Temp
°C
App
Temp
°C
Dew
Point
°C
Rel
Hum
%
Delta-T
°C
Wind Press
QNH
hPa
Press
MSL
hPa
Rain since
9am
mm
Dir  Spd
km/h
Gust
km/h
Spd
kts
Gust
kts
01/11:30pm 31.6 - 13.6 33 11.0 - - - - - 1008.8 - 0.0
01/11:00pm 32.5 - 12.4 29 12.1 - - - - - 1008.6 - 0.0
01/10:30pm 32.8 - 11.9 28 12.5 - - - - - 1008.7 - 0.0
01/10:00pm 33.4 - 10.7 25 13.4 - - - - - 1008.3 - 0.0
01/09:30pm 33.7 - 10.4 24 13.7 - - - - - 1007.6 - 0.0
01/09:00pm 34.5 - 8.8 20 14.8 - - - - - 1007.2 1004.4 0.0
01/08:30pm 35.3 - 8.3 19 15.4 - - - - - 1006.6 - 0.0
01/08:00pm 35.7 - 8.1 18 15.8 - - - - - 1006.1 - 0.0
01/07:30pm 36.5 - 7.9 17 16.4 - - - - - 1005.6 - 0.0
01/07:00pm 37.3 - 9.2 18 16.4 - - - - - 1004.9 - 0.0
01/06:30pm 38.4 - 3.5 11 18.8 - - - - - 1004.6 - 0.0
01/06:00pm 38.8 - 3.4 11 19.2 - - - - - 1004.5 1001.7 0.0

Other Formats:

Comma delimited format used in spreadsheet applications
http://www.bom.gov.au/fwo/IDD60801/IDD60801.95322.axf

JavaScript Object Notation format (JSON) in row-major order
http://www.bom.gov.au/fwo/IDD60801/IDD60801.95322.json